• Join FlightAware (Why Join?)
  • Login
  • US Flag 
09:48PM EDT


 

Airport Tracker/Info


-or-


 

Live Flight TrackerFlight Track Log ✈ EZY8474 ✈ 06-May-2012 ✈ EGKK / LGW - LSGG / GVA

Flight Track Log - Related Links

Times and Time Zones

All times are in EDT time to prevent confusion due to time zone crossing. See the EZY8474 flight status page for this flight to view local times or setup timezone preferences in your user account.

Time Position Orientation Groundspeed Altitude Reporting Facility
EDT Latitude Longitude Course Direction KTS MPH feet Rate Location/Type
09:40AM 51.1036 -0.0285 171° South 261 300 5,800  Level FlightAware ADS-B
09:40AM 51.0756 -0.0216 167° South 262 302 6,000 240 Climbing FlightAware ADS-B
09:41AM 51.0542 -0.0139 167° South 266 306 6,000  Level FlightAware ADS-B
09:41AM 51.0327 -0.0059 166° South 266 306 6,000 1,740 Level FlightAware ADS-B
09:47AM 50.5245 0.1926 166° South 378 435 17,300 1,860 Climbing FlightAware ADS-B
09:48AM 50.4516 0.2220 158° South 385 443 18,800 2,100 Climbing FlightAware ADS-B
09:49AM 50.3578 0.2816 140° Southeast 395 455 20,800 2,100 Climbing FlightAware ADS-B
09:49AM 50.3467 0.2963 135° Southeast 409 471 21,100 2,220 Climbing FlightAware ADS-B
09:56AM 49.9270 0.9560 135° Southeast  Level Estimated
09:57AM 49.8689 1.0459 135° Southeast  Level Estimated
09:58AM 49.8108 1.1356 135° Southeast  Level Estimated
09:59AM 49.7526 1.2251 135° Southeast  Level Estimated
10:00AM 49.6944 1.3143 135° Southeast  Level Estimated
10:01AM 49.6361 1.4033 135° Southeast  Level Estimated
10:02AM 49.5777 1.4922 135° Southeast  Level Estimated
10:03AM 49.5192 1.5808 136° Southeast  Level Estimated
10:04AM 49.4607 1.6692 136° Southeast  Level Estimated
10:05AM 49.4021 1.7574 136° Southeast  Level Estimated
10:06AM 49.3434 1.8454 136° Southeast  Level Estimated
10:07AM 49.2847 1.9331 136° Southeast  Level Estimated
10:08AM 49.2259 2.0207 136° Southeast  Level Estimated
10:09AM 49.1854 2.0808 136° Southeast  Level Estimated
10:10AM 49.1449 2.1409 136° Southeast  Level Estimated
10:11AM 49.1043 2.2008 136° Southeast  Level Estimated
10:12AM 49.0637 2.2607 136° Southeast  Level Estimated
10:13AM 49.0230 2.3204 136° Southeast  Level Estimated
10:14AM 48.9824 2.3801 136° Southeast  Level Estimated
10:15AM 48.9417 2.4397 136° Southeast  Level Estimated
10:16AM 48.9010 2.4991 136° Southeast  Level Estimated
10:17AM 48.8602 2.5585 136° Southeast  Level Estimated
10:18AM 48.8194 2.6177 136° Southeast  Level Estimated
10:19AM 48.7786 2.6769 136° Southeast  Level Estimated
10:20AM 48.7378 2.7360 136° Southeast  Level Estimated
10:21AM 48.6969 2.7950 136° Southeast  Level Estimated
10:22AM 48.6560 2.8538 136° Southeast  Level Estimated
10:23AM 48.6151 2.9126 137° Southeast  Level Estimated
10:24AM 48.5741 2.9713 137° Southeast  Level Estimated
10:25AM 48.5331 3.0299 137° Southeast  Level Estimated
10:26AM 48.4921 3.0884 137° Southeast  Level Estimated
10:27AM 48.4510 3.1468 137° Southeast  Level Estimated
10:28AM 48.4100 3.2051 137° Southeast  Level Estimated
10:29AM 48.3688 3.2634 137° Southeast  Level Estimated
10:30AM 48.3277 3.3215 137° Southeast  Level Estimated
10:31AM 48.2865 3.3795 137° Southeast  Level Estimated
10:32AM 48.2453 3.4374 137° Southeast  Level Estimated
10:33AM 48.2041 3.4953 137° Southeast  Level Estimated
10:34AM 48.1628 3.5530 137° Southeast  Level Estimated
10:35AM 48.1216 3.6107 137° Southeast  Level Estimated
10:36AM 48.0802 3.6683 137° Southeast  Level Estimated
10:37AM 48.0389 3.7257 137° Southeast  Level Estimated
10:38AM 47.9975 3.7831 137° Southeast  Level Estimated
10:39AM 47.9561 3.8404 137° Southeast  Level Estimated
10:40AM 47.9147 3.8976 137° Southeast  Level Estimated
10:41AM 47.8732 3.9547 137° Southeast  Level Estimated
10:42AM 47.8317 4.0117 137° Southeast  Level Estimated
10:43AM 47.7902 4.0686 137° Southeast  Level Estimated
10:44AM 47.7487 4.1255 137° Southeast  Level Estimated
10:45AM 47.7071 4.1822 137° Southeast  Level Estimated
10:46AM 47.6655 4.2389 138° Southeast  Level Estimated
10:47AM 47.6239 4.2954 138° Southeast  Level Estimated
10:48AM 47.5822 4.3519 138° Southeast  Level Estimated
10:49AM 47.5406 4.4083 138° Southeast  Level Estimated
10:50AM 47.4988 4.4646 138° Southeast  Level Estimated
10:51AM 47.4571 4.5208 138° Southeast  Level Estimated
10:52AM 47.4153 4.5769 138° Southeast  Level Estimated
10:53AM 47.3735 4.6329 138° Southeast  Level Estimated
10:54AM 47.3317 4.6888 138° Southeast  Level Estimated
10:55AM 47.2899 4.7447 138° Southeast  Level Estimated
10:56AM 47.2480 4.8004 138° Southeast  Level Estimated
10:57AM 47.2061 4.8561 138° Southeast  Level Estimated
10:58AM 47.1642 4.9117 138° Southeast  Level Estimated
10:59AM 47.1222 4.9672 138° Southeast  Level Estimated
11:00AM 47.0802 5.0226 138° Southeast  Level Estimated
11:01AM 47.0382 5.0779 138° Southeast  Level Estimated
11:02AM 46.9962 5.1332 138° Southeast  Level Estimated
11:03AM 46.9541 5.1883 138° Southeast  Level Estimated
11:04AM 46.9120 5.2434 138° Southeast  Level Estimated
11:05AM 46.8699 5.2983 138° Southeast  Level Estimated
11:06AM 46.8278 5.3532 138° Southeast  Level Estimated
11:07AM 46.7856 5.4080 138° Southeast  Level Estimated
11:08AM 46.7434 5.4627 138° Southeast  Level Estimated
11:09AM 46.7012 5.5174 138° Southeast  Level Estimated
11:10AM 46.6590 5.5719 138° Southeast  Level Estimated
11:11AM 46.6167 5.6264 139° Southeast  Level Estimated
11:12AM 46.5744 5.6807 139° Southeast  Level Estimated
11:13AM 46.5321 5.7350 139° Southeast  Level Estimated
11:14AM 46.4897 5.7892 139° Southeast  Level Estimated
11:15AM 46.4473 5.8434 139° Southeast  Level Estimated
11:16AM 46.4049 5.8974 139° Southeast  Level Estimated
11:17AM 46.3625 5.9514 139° Southeast  Level Estimated
11:18AM 46.3201 6.0052 139° Southeast  Level Estimated
11:19AM 46.2776 6.0590 139° Southeast  Level Estimated
11:20AM 46.2351 6.1127 319° Northwest  Level Estimated
11:21AM 46.2776 6.0591 139° Southeast  Level Estimated
11:22AM 46.2351 6.1127 319° Northwest  Level Estimated
11:23AM 46.2776 6.0591 139° Southeast  Level Estimated
11:24AM 46.2351 6.1127 319° Northwest  Level Estimated
11:25AM 46.2776 6.0591 139° Southeast  Level Estimated
11:26AM 46.2351 6.1127 319° Northwest  Level Estimated
11:27AM 46.2776 6.0591 139° Southeast  Level Estimated
11:28AM 46.2351 6.1127 319° Northwest  Level Estimated
11:29AM 46.2776 6.0591 139° Southeast  Level Estimated
11:30AM 46.2351 6.1127 319° Northwest  Level Estimated
11:31AM 46.2776 6.0591 139° Southeast  Level Estimated
11:32AM 46.2351 6.1127 319° Northwest  Level Estimated
11:33AM 46.2776 6.0591 139° Southeast  Level Estimated
11:34AM 46.2351 6.1127 319° Northwest  Level Estimated
11:35AM 46.2776 6.0591 139° Southeast  Level Estimated
11:36AM 46.2351 6.1127 319° Northwest  Level Estimated
11:37AM 46.2776 6.0591 139° Southeast  Level Estimated
11:38AM 46.2351 6.1127 319° Northwest  Level Estimated
11:39AM 46.2776 6.0591 139° Southeast  Level Estimated
11:40AM 46.2351 6.1127 319° Northwest  Level Estimated
11:41AM 46.2776 6.0591 139° Southeast  Level Estimated
11:42AM 46.2351 6.1127 319° Northwest  Level Estimated
11:43AM 46.2776 6.0591 139° Southeast  Level Estimated
11:44AM 46.2351 6.1127 319° Northwest  Level Estimated
11:45AM 46.2776 6.0591 139° Southeast  Level Estimated
11:46AM 46.2351 6.1127 319° Northwest  Level Estimated
11:47AM 46.2776 6.0591 139° Southeast  Level Estimated
11:48AM 46.2351 6.1127 319° Northwest  Level Estimated
11:49AM 46.2776 6.0591 139° Southeast  Level Estimated
11:50AM 46.2351 6.1127 319° Northwest  Level Estimated
11:51AM 46.2776 6.0591 139° Southeast  Level Estimated
11:52AM 46.2351 6.1127 319° Northwest  Level Estimated
11:53AM 46.2776 6.0591 139° Southeast  Level Estimated
11:54AM 46.2351 6.1127 319° Northwest  Level Estimated
11:55AM 46.2776 6.0591 139° Southeast  Level Estimated
11:56AM 46.2351 6.1127 319° Northwest  Level Estimated
11:57AM 46.2776 6.0591 139° Southeast  Level Estimated
11:58AM 46.2351 6.1127 319° Northwest  Level Estimated
11:59AM 46.2776 6.0591 139° Southeast  Level Estimated
12:00PM 46.2351 6.1127 319° Northwest  Level Estimated
12:01PM 46.2776 6.0591 139° Southeast  Level Estimated
12:02PM 46.2351 6.1127 319° Northwest  Level Estimated
12:03PM 46.2776 6.0591 139° Southeast  Level Estimated
12:04PM 46.2351 6.1127 319° Northwest  Level Estimated
12:05PM 46.2776 6.0591 139° Southeast  Level Estimated
12:06PM 46.2351 6.1127 319° Northwest  Level Estimated
12:07PM 46.2776 6.0591 139° Southeast  Level Estimated
12:08PM 46.2351 6.1127 319° Northwest  Level Estimated
12:09PM 46.2776 6.0591 139° Southeast  Level Estimated
12:10PM 46.2351 6.1127 319° Northwest  Level Estimated
12:11PM 46.2776 6.0591 139° Southeast  Level Estimated
12:12PM 46.2351 6.1127 319° Northwest  Level Estimated
12:13PM 46.2776 6.0591 139° Southeast  Level Estimated
12:14PM 46.2351 6.1127 319° Northwest  Level Estimated
12:15PM 46.2776 6.0591 139° Southeast  Level Estimated
12:16PM 46.2351 6.1127 319° Northwest  Level Estimated
12:17PM 46.2776 6.0591 139° Southeast  Level Estimated
12:18PM 46.2351 6.1127 319° Northwest  Level Estimated
12:19PM 46.2776 6.0591 139° Southeast  Level Estimated
12:20PM 46.2351 6.1127 319° Northwest  Level Estimated
12:21PM 46.2776 6.0591 139° Southeast  Level Estimated
12:22PM 46.2351 6.1127 319° Northwest  Level Estimated
12:23PM 46.2776 6.0591 139° Southeast  Level Estimated
12:24PM 46.2351 6.1127 319° Northwest  Level Estimated
12:25PM 46.2776 6.0591 319° Northwest  Level Estimated